Terminal Aerodrome Forecast
Issued by NWS

Home | Current Version | Previous Version | Text Only | Print | Product List | Glossary On
Versions: 1 2 3 4 5 6 7 8 9 10 11 12 13 14 15 16 17 18 19 20
000
FTUS41 KCLE 201130
TAFFDY
TAF
KFDY 201130Z 2012/2112 VRB03KT P6SM BKN060
     FM201700 22006KT P6SM BKN045
     FM202300 13004KT P6SM SCT050
     FM210900 VRB03KT 5SM BR SKC=

USA.gov is the U.S. government's official web portal to all federal, state and local government web resources and services.